sensor_id;sensor_type;location;lat;lon;timestamp;pressure;altitude;pressure_sealevel;temperature;humidity
7407;BME280;3745;56.964;24.128;2022-09-30T00:01:45;100508.09;;;10.11;100.00
7407;BME280;3745;56.964;24.128;2022-09-30T00:04:17;100503.84;;;10.09;100.00
7407;BME280;3745;56.964;24.128;2022-09-30T00:06:43;100509.03;;;10.19;100.00
7407;BME280;3745;56.964;24.128;2022-09-30T00:09:09;100506.50;;;10.18;100.00
7407;BME280;3745;56.964;24.128;2022-09-30T00:11:37;100475.97;;;10.04;100.00
7407;BME280;3745;56.964;24.128;2022-09-30T00:14:04;100513.34;;;10.26;100.00
7407;BME280;3745;56.964;24.128;2022-09-30T00:16:32;100455.66;;;9.95;100.00
7407;BME280;3745;56.964;24.128;2022-09-30T00:18:59;100517.53;;;10.27;100.00
7407;BME280;3745;56.964;24.128;2022-09-30T00:21:26;100511.59;;;10.22;100.00
7407;BME280;3745;56.964;24.128;2022-09-30T00:23:53;100520.06;;;10.27;100.00
7407;BME280;3745;56.964;24.128;2022-09-30T00:26:22;100517.53;;;10.26;100.00
7407;BME280;3745;56.964;24.128;2022-09-30T00:28:53;100525.16;;;10.30;100.00
7407;BME280;3745;56.964;24.128;2022-09-30T00:31:21;100525.16;;;10.30;100.00
7407;BME280;3745;56.964;24.128;2022-09-30T00:33:48;100511.59;;;10.22;100.00
7407;BME280;3745;56.964;24.128;2022-09-30T00:36:45;100508.22;;;10.20;100.00
7407;BME280;3745;56.964;24.128;2022-09-30T00:39:20;100504.84;;;10.21;100.00
7407;BME280;3745;56.964;24.128;2022-09-30T00:41:49;100526.09;;;10.39;100.00
7407;BME280;3745;56.964;24.128;2022-09-30T00:44:53;100537.03;;;10.38;100.00
7407;BME280;3745;56.964;24.128;2022-09-30T00:52:40;100509.47;;;9.85;100.00
7407;BME280;3745;56.964;24.128;2022-09-30T00:55:10;100530.78;;;10.07;100.00
7407;BME280;3745;56.964;24.128;2022-09-30T00:57:41;100548.59;;;10.14;100.00
7407;BME280;3745;56.964;24.128;2022-09-30T01:00:07;100557.00;;;10.13;100.00
7407;BME280;3745;56.964;24.128;2022-09-30T01:02:33;100539.97;;;10.00;100.00
7407;BME280;3745;56.964;24.128;2022-09-30T01:04:58;100553.69;;;10.17;100.00
7407;BME280;3745;56.964;24.128;2022-09-30T01:07:24;100561.94;;;10.04;100.00
7407;BME280;3745;56.964;24.128;2022-09-30T01:09:51;100556.75;;;9.92;100.00
7407;BME280;3745;56.964;24.128;2022-09-30T01:12:20;100556.78;;;9.95;100.00
7407;BME280;3745;56.964;24.128;2022-09-30T01:14:49;100532.81;;;9.66;100.00
7407;BME280;3745;56.964;24.128;2022-09-30T01:17:40;100579.38;;;9.83;100.00
7407;BME280;3745;56.964;24.128;2022-09-30T01:25:50;100588.69;;;9.87;100.00
7407;BME280;3745;56.964;24.128;2022-09-30T01:42:21;100595.69;;;10.09;100.00
7407;BME280;3745;56.964;24.128;2022-09-30T01:45:07;100587.94;;;9.93;100.00
7407;BME280;3745;56.964;24.128;2022-09-30T01:47:49;100592.91;;;9.87;100.00
7407;BME280;3745;56.964;24.128;2022-09-30T01:50:24;100600.63;;;10.00;100.00
7407;BME280;3745;56.964;24.128;2022-09-30T01:55:40;100578.34;;;9.69;100.00
7407;BME280;3745;56.964;24.128;2022-09-30T01:58:14;100606.28;;;9.78;100.00
7407;BME280;3745;56.964;24.128;2022-09-30T02:00:45;100610.53;;;9.82;100.00
7407;BME280;3745;56.964;24.128;2022-09-30T02:03:20;100618.81;;;9.72;100.00
7407;BME280;3745;56.964;24.128;2022-09-30T02:05:53;100617.16;;;9.74;100.00
7407;BME280;3745;56.964;24.128;2022-09-30T02:11:00;100609.50;;;9.68;100.00
7407;BME280;3745;56.964;24.128;2022-09-30T02:13:36;100584.78;;;9.49;100.00
7407;BME280;3745;56.964;24.128;2022-09-30T02:16:06;100622.72;;;9.52;100.00
7407;BME280;3745;56.964;24.128;2022-09-30T02:18:42;100630.25;;;9.49;100.00
7407;BME280;3745;56.964;24.128;2022-09-30T02:21:12;100629.19;;;9.33;100.00
7407;BME280;3745;56.964;24.128;2022-09-30T02:23:41;100634.38;;;9.41;100.00
7407;BME280;3745;56.964;24.128;2022-09-30T02:26:13;100641.81;;;9.32;100.00
7407;BME280;3745;56.964;24.128;2022-09-30T02:28:47;100638.28;;;9.23;100.00
7407;BME280;3745;56.964;24.128;2022-09-30T02:31:14;100643.28;;;9.19;100.00
7407;BME280;3745;56.964;24.128;2022-09-30T02:34:10;100651.94;;;9.35;100.00
7407;BME280;3745;56.964;24.128;2022-09-30T02:36:48;100644.94;;;9.18;100.00
7407;BME280;3745;56.964;24.128;2022-09-30T02:39:28;100655.25;;;9.31;100.00
7407;BME280;3745;56.964;24.128;2022-09-30T02:42:01;100650.19;;;9.31;100.00
7407;BME280;3745;56.964;24.128;2022-09-30T02:44:28;100653.44;;;9.23;100.00
7407;BME280;3745;56.964;24.128;2022-09-30T02:47:06;100657.66;;;9.24;100.00
7407;BME280;3745;56.964;24.128;2022-09-30T02:49:46;100655.81;;;9.14;100.00
7407;BME280;3745;56.964;24.128;2022-09-30T02:57:28;100619.19;;;8.88;100.00
7407;BME280;3745;56.964;24.128;2022-09-30T02:59:58;100666.66;;;9.07;100.00
7407;BME280;3745;56.964;24.128;2022-09-30T03:02:24;100606.16;;;8.65;100.00
7407;BME280;3745;56.964;24.128;2022-09-30T03:04:50;100666.28;;;8.89;100.00
7407;BME280;3745;56.964;24.128;2022-09-30T03:07:16;100677.41;;;8.97;100.00
7407;BME280;3745;56.964;24.128;2022-09-30T03:09:42;100634.06;;;8.73;100.00
7407;BME280;3745;56.964;24.128;2022-09-30T03:12:37;100685.78;;;8.96;100.00
7407;BME280;3745;56.964;24.128;2022-09-30T03:20:38;100680.50;;;8.83;100.00
7407;BME280;3745;56.964;24.128;2022-09-30T03:23:38;100687.69;;;8.63;100.00
7407;BME280;3745;56.964;24.128;2022-09-30T03:28:56;100695.75;;;8.47;100.00
7407;BME280;3745;56.964;24.128;2022-09-30T03:42:19;100707.91;;;8.26;100.00
7407;BME280;3745;56.964;24.128;2022-09-30T03:45:02;100696.88;;;8.21;100.00
7407;BME280;3745;56.964;24.128;2022-09-30T03:47:32;100722.22;;;8.27;100.00
7407;BME280;3745;56.964;24.128;2022-09-30T03:50:02;100718.03;;;8.27;100.00
7407;BME280;3745;56.964;24.128;2022-09-30T03:52:30;100683.06;;;8.03;100.00
7407;BME280;3745;56.964;24.128;2022-09-30T03:54:59;100717.09;;;8.24;100.00
7407;BME280;3745;56.964;24.128;2022-09-30T03:57:26;100721.41;;;8.28;100.00
7407;BME280;3745;56.964;24.128;2022-09-30T03:59:58;100684.63;;;7.98;100.00
7407;BME280;3745;56.964;24.128;2022-09-30T04:02:24;100727.25;;;8.27;100.00
7407;BME280;3745;56.964;24.128;2022-09-30T04:04:50;100729.78;;;8.27;100.00
7407;BME280;3745;56.964;24.128;2022-09-30T04:07:16;100696.44;;;7.99;100.00
7407;BME280;3745;56.964;24.128;2022-09-30T04:09:42;100711.53;;;7.99;100.00
7407;BME280;3745;56.964;24.128;2022-09-30T04:12:08;100738.69;;;8.12;100.00
7407;BME280;3745;56.964;24.128;2022-09-30T04:14:34;100695.88;;;7.75;100.00
7407;BME280;3745;56.964;24.128;2022-09-30T04:17:01;100748.44;;;7.97;100.00
7407;BME280;3745;56.964;24.128;2022-09-30T04:19:27;100734.53;;;7.77;100.00
7407;BME280;3745;56.964;24.128;2022-09-30T04:21:53;100760.09;;;7.92;100.00
7407;BME280;3745;56.964;24.128;2022-09-30T04:24:23;100759.16;;;7.89;100.00
7407;BME280;3745;56.964;24.128;2022-09-30T04:26:49;100761.78;;;7.93;100.00
7407;BME280;3745;56.964;24.128;2022-09-30T04:29:15;100724.09;;;7.62;100.00
7407;BME280;3745;56.964;24.128;2022-09-30T04:31:41;100764.03;;;7.81;100.00
7407;BME280;3745;56.964;24.128;2022-09-30T04:34:08;100770.03;;;7.86;100.00
7407;BME280;3745;56.964;24.128;2022-09-30T04:36:36;100696.63;;;7.37;100.00
7407;BME280;3745;56.964;24.128;2022-09-30T04:39:02;100744.09;;;7.56;100.00
7407;BME280;3745;56.964;24.128;2022-09-30T04:41:27;100770.50;;;7.72;100.00
7407;BME280;3745;56.964;24.128;2022-09-30T04:43:53;100779.72;;;7.71;100.00
7407;BME280;3745;56.964;24.128;2022-09-30T04:46:20;100776.38;;;7.72;100.00
7407;BME280;3745;56.964;24.128;2022-09-30T04:48:47;100785.41;;;7.62;100.00
7407;BME280;3745;56.964;24.128;2022-09-30T04:51:17;100736.59;;;7.25;100.00
7407;BME280;3745;56.964;24.128;2022-09-30T04:53:43;100790.97;;;7.51;100.00
7407;BME280;3745;56.964;24.128;2022-09-30T04:56:09;100766.88;;;7.28;100.00
7407;BME280;3745;56.964;24.128;2022-09-30T04:58:35;100792.66;;;7.52;100.00
7407;BME280;3745;56.964;24.128;2022-09-30T05:01:04;100804.53;;;7.56;100.00
7407;BME280;3745;56.964;24.128;2022-09-30T05:03:30;100809.56;;;7.56;100.00
7407;BME280;3745;56.964;24.128;2022-09-30T05:05:55;100817.84;;;7.52;100.00
7407;BME280;3745;56.964;24.128;2022-09-30T05:08:21;100827.84;;;7.49;100.00
7407;BME280;3745;56.964;24.128;2022-09-30T05:11:02;100749.91;;;7.21;100.00
7407;BME280;3745;56.964;24.128;2022-09-30T05:13:33;100814.59;;;7.56;100.00
7407;BME280;3745;56.964;24.128;2022-09-30T05:16:00;100815.38;;;7.53;100.00
7407;BME280;3745;56.964;24.128;2022-09-30T05:18:27;100816.72;;;7.41;100.00
7407;BME280;3745;56.964;24.128;2022-09-30T05:20:54;100852.09;;;7.45;100.00
7407;BME280;3745;56.964;24.128;2022-09-30T05:23:23;100855.69;;;7.53;100.00
7407;BME280;3745;56.964;24.128;2022-09-30T05:25:49;100857.50;;;7.59;100.00
7407;BME280;3745;56.964;24.128;2022-09-30T05:28:15;100855.28;;;7.71;100.00
7407;BME280;3745;56.964;24.128;2022-09-30T05:30:42;100871.41;;;7.78;100.00
7407;BME280;3745;56.964;24.128;2022-09-30T05:33:09;100855.28;;;7.71;100.00
7407;BME280;3745;56.964;24.128;2022-09-30T05:35:35;100848.31;;;7.61;100.00
7407;BME280;3745;56.964;24.128;2022-09-30T05:38:01;100878.91;;;7.76;100.00
7407;BME280;3745;56.964;24.128;2022-09-30T05:40:30;100883.19;;;7.79;100.00
7407;BME280;3745;56.964;24.128;2022-09-30T05:42:57;100878.91;;;7.76;100.00
7407;BME280;3745;56.964;24.128;2022-09-30T05:45:24;100895.91;;;7.83;100.00
7407;BME280;3745;56.964;24.128;2022-09-30T05:47:53;100878.59;;;7.64;100.00
7407;BME280;3745;56.964;24.128;2022-09-30T05:50:19;100898.50;;;7.86;100.00
7407;BME280;3745;56.964;24.128;2022-09-30T05:52:46;100909.53;;;7.91;100.00
7407;BME280;3745;56.964;24.128;2022-09-30T05:55:12;100893.06;;;8.02;100.00
7407;BME280;3745;56.964;24.128;2022-09-30T05:57:38;100918.56;;;8.14;100.00
7407;BME280;3745;56.964;24.128;2022-09-30T06:00:05;100906.69;;;8.10;100.00
7407;BME280;3745;56.964;24.128;2022-09-30T06:02:31;100903.66;;;8.24;100.00
7407;BME280;3745;56.964;24.128;2022-09-30T06:04:56;100905.53;;;8.31;100.00
7407;BME280;3745;56.964;24.128;2022-09-30T06:07:22;100915.69;;;8.34;100.00
7407;BME280;3745;56.964;24.128;2022-09-30T06:09:47;100927.41;;;8.32;100.00
7407;BME280;3745;56.964;24.128;2022-09-30T06:12:13;100936.19;;;8.46;100.00
7407;BME280;3745;56.964;24.128;2022-09-30T06:14:39;100935.13;;;8.38;100.00
7407;BME280;3745;56.964;24.128;2022-09-30T06:17:05;100934.53;;;8.48;100.00
7407;BME280;3745;56.964;24.128;2022-09-30T06:19:31;100929.50;;;8.48;100.00
7407;BME280;3745;56.964;24.128;2022-09-30T06:21:57;100938.22;;;8.62;100.00
7407;BME280;3745;56.964;24.128;2022-09-30T06:24:23;100870.63;;;8.13;100.00
7407;BME280;3745;56.964;24.128;2022-09-30T06:26:49;100921.31;;;8.58;100.00
7407;BME280;3745;56.964;24.128;2022-09-30T06:29:15;100935.31;;;8.81;100.00
7407;BME280;3745;56.964;24.128;2022-09-30T06:31:40;100922.59;;;8.77;100.00
7407;BME280;3745;56.964;24.128;2022-09-30T06:34:06;100937.50;;;9.03;100.00
7407;BME280;3745;56.964;24.128;2022-09-30T06:36:32;100891.00;;;8.55;100.00
7407;BME280;3745;56.964;24.128;2022-09-30T06:39:03;100940.63;;;8.93;100.00
7407;BME280;3745;56.964;24.128;2022-09-30T06:41:29;100891.25;;;8.67;100.00
7407;BME280;3745;56.964;24.128;2022-09-30T06:43:56;100944.94;;;8.99;100.00
7407;BME280;3745;56.964;24.128;2022-09-30T06:46:22;100896.91;;;8.94;100.00
7407;BME280;3745;56.964;24.128;2022-09-30T06:48:58;100956.69;;;9.36;100.00
7407;BME280;3745;56.964;24.128;2022-09-30T06:51:23;100952.97;;;9.20;100.00
7407;BME280;3745;56.964;24.128;2022-09-30T06:53:53;100914.97;;;9.12;100.00
7407;BME280;3745;56.964;24.128;2022-09-30T06:56:19;100948.91;;;9.25;100.00
7407;BME280;3745;56.964;24.128;2022-09-30T06:58:45;100944.78;;;9.29;100.00
7407;BME280;3745;56.964;24.128;2022-09-30T07:01:12;100920.63;;;9.02;100.00
7407;BME280;3745;56.964;24.128;2022-09-30T07:03:43;100958.72;;;9.52;100.00
7407;BME280;3745;56.964;24.128;2022-09-30T07:06:11;100962.03;;;9.51;100.00
7407;BME280;3745;56.964;24.128;2022-09-30T07:08:37;100969.06;;;9.23;100.00
7407;BME280;3745;56.964;24.128;2022-09-30T07:11:11;100980.06;;;9.25;100.00
7407;BME280;3745;56.964;24.128;2022-09-30T07:13:46;100977.00;;;9.42;100.00
7407;BME280;3745;56.964;24.128;2022-09-30T07:16:14;100968.88;;;9.55;100.00
7407;BME280;3745;56.964;24.128;2022-09-30T07:18:40;100934.72;;;9.32;100.00
7407;BME280;3745;56.964;24.128;2022-09-30T07:21:07;100974.91;;;9.63;100.00
7407;BME280;3745;56.964;24.128;2022-09-30T07:23:34;100958.09;;;9.63;100.00
7407;BME280;3745;56.964;24.128;2022-09-30T07:26:01;100977.00;;;9.82;100.00
7407;BME280;3745;56.964;24.128;2022-09-30T07:28:33;100961.81;;;9.82;100.00
7407;BME280;3745;56.964;24.128;2022-09-30T07:31:02;100938.50;;;9.52;100.00
7407;BME280;3745;56.964;24.128;2022-09-30T07:33:31;100987.09;;;9.80;100.00
7407;BME280;3745;56.964;24.128;2022-09-30T07:35:59;100991.28;;;9.80;100.00
7407;BME280;3745;56.964;24.128;2022-09-30T07:38:28;100994.69;;;9.82;100.00
7407;BME280;3745;56.964;24.128;2022-09-30T07:41:03;101001.50;;;9.86;100.00
7407;BME280;3745;56.964;24.128;2022-09-30T07:43:30;101003.28;;;9.90;100.00
7407;BME280;3745;56.964;24.128;2022-09-30T07:46:04;100998.47;;;10.02;100.00
7407;BME280;3745;56.964;24.128;2022-09-30T07:48:30;100994.16;;;10.00;100.00
7407;BME280;3745;56.964;24.128;2022-09-30T07:51:12;100985.13;;;10.12;100.00
7407;BME280;3745;56.964;24.128;2022-09-30T07:53:41;101004.50;;;10.57;100.00
7407;BME280;3745;56.964;24.128;2022-09-30T07:56:08;100967.97;;;10.40;100.00
7407;BME280;3745;56.964;24.128;2022-09-30T07:58:34;100962.81;;;10.33;100.00
7407;BME280;3745;56.964;24.128;2022-09-30T08:01:00;101010.59;;;10.66;100.00
7407;BME280;3745;56.964;24.128;2022-09-30T08:03:30;101001.38;;;10.70;100.00
7407;BME280;3745;56.964;24.128;2022-09-30T08:05:55;101009.81;;;10.72;100.00
7407;BME280;3745;56.964;24.128;2022-09-30T08:08:27;101007.97;;;10.62;100.00
7407;BME280;3745;56.964;24.128;2022-09-30T08:10:52;101019.34;;;10.36;100.00
7407;BME280;3745;56.964;24.128;2022-09-30T08:13:22;101029.50;;;10.39;100.00
7407;BME280;3745;56.964;24.128;2022-09-30T08:15:47;101037.16;;;10.43;100.00
7407;BME280;3745;56.964;24.128;2022-09-30T08:18:13;101038.19;;;10.53;100.00
7407;BME280;3745;56.964;24.128;2022-09-30T08:20:39;101012.81;;;10.50;100.00
7407;BME280;3745;56.964;24.128;2022-09-30T08:23:04;101023.94;;;10.58;100.00
7407;BME280;3745;56.964;24.128;2022-09-30T08:25:30;101043.44;;;10.65;100.00
7407;BME280;3745;56.964;24.128;2022-09-30T08:27:55;101043.59;;;10.74;100.00
7407;BME280;3745;56.964;24.128;2022-09-30T08:30:21;101018.81;;;10.55;100.00
7407;BME280;3745;56.964;24.128;2022-09-30T08:32:46;101039.28;;;10.67;100.00
7407;BME280;3745;56.964;24.128;2022-09-30T08:35:12;101045.31;;;10.75;100.00
7407;BME280;3745;56.964;24.128;2022-09-30T08:37:38;101012.13;;;10.58;100.00
7407;BME280;3745;56.964;24.128;2022-09-30T08:40:14;100986.59;;;10.45;100.00
7407;BME280;3745;56.964;24.128;2022-09-30T08:51:03;101054.47;;;11.19;100.00
7407;BME280;3745;56.964;24.128;2022-09-30T08:53:36;101050.25;;;11.21;100.00
7407;BME280;3745;56.964;24.128;2022-09-30T08:56:04;101058.78;;;11.25;100.00
7407;BME280;3745;56.964;24.128;2022-09-30T08:58:36;101037.56;;;11.18;100.00
7407;BME280;3745;56.964;24.128;2022-09-30T09:01:10;101048.13;;;11.49;100.00
7407;BME280;3745;56.964;24.128;2022-09-30T09:03:40;101003.81;;;11.19;100.00
7407;BME280;3745;56.964;24.128;2022-09-30T09:11:38;100857.56;;;10.45;100.00
7407;BME280;3745;56.964;24.128;2022-09-30T09:17:22;101025.47;;;11.61;100.00
7407;BME280;3745;56.964;24.128;2022-09-30T09:19:52;101058.88;;;11.94;100.00
7407;BME280;3745;56.964;24.128;2022-09-30T09:22:21;101063.94;;;11.94;100.00
7407;BME280;3745;56.964;24.128;2022-09-30T09:24:50;101036.91;;;11.93;100.00
7407;BME280;3745;56.964;24.128;2022-09-30T09:27:40;101071.03;;;12.22;100.00
7407;BME280;3745;56.964;24.128;2022-09-30T09:30:31;101052.34;;;12.14;100.00
7407;BME280;3745;56.964;24.128;2022-09-30T09:33:04;101078.66;;;12.21;100.00
7407;BME280;3745;56.964;24.128;2022-09-30T09:41:56;101068.03;;;12.60;100.00
7407;BME280;3745;56.964;24.128;2022-09-30T09:44:45;101064.66;;;12.58;100.00
7407;BME280;3745;56.964;24.128;2022-09-30T09:47:16;101073.16;;;12.63;100.00
7407;BME280;3745;56.964;24.128;2022-09-30T09:49:49;101051.09;;;12.59;100.00
7407;BME280;3745;56.964;24.128;2022-09-30T09:52:48;101073.28;;;12.78;100.00
7407;BME280;3745;56.964;24.128;2022-09-30T09:55:21;101070.88;;;12.93;100.00
7407;BME280;3745;56.964;24.128;2022-09-30T09:57:47;101064.97;;;12.97;100.00
7407;BME280;3745;56.964;24.128;2022-09-30T10:03:16;101079.41;;;12.99;100.00
7407;BME280;3745;56.964;24.128;2022-09-30T10:06:06;101087.03;;;12.98;100.00
7407;BME280;3745;56.964;24.128;2022-09-30T10:08:35;101092.84;;;12.89;100.00
7407;BME280;3745;56.964;24.128;2022-09-30T10:11:23;101098.78;;;12.90;100.00
7407;BME280;3745;56.964;24.128;2022-09-30T10:13:50;101058.06;;;12.81;100.00
7407;BME280;3745;56.964;24.128;2022-09-30T10:16:34;101086.81;;;12.77;100.00
7407;BME280;3745;56.964;24.128;2022-09-30T10:19:02;101080.06;;;12.76;100.00
7407;BME280;3745;56.964;24.128;2022-09-30T10:21:30;101086.00;;;12.81;100.00
7407;BME280;3745;56.964;24.128;2022-09-30T10:23:56;101096.38;;;13.03;100.00
7407;BME280;3745;56.964;24.128;2022-09-30T10:26:26;101077.66;;;12.95;100.00
7407;BME280;3745;56.964;24.128;2022-09-30T10:29:01;101077.63;;;12.91;100.00
7407;BME280;3745;56.964;24.128;2022-09-30T10:34:10;101097.34;;;13.15;100.00
7407;BME280;3745;56.964;24.128;2022-09-30T10:36:40;101093.97;;;13.17;100.00
7407;BME280;3745;56.964;24.128;2022-09-30T10:39:23;101042.75;;;12.72;100.00
7407;BME280;3745;56.964;24.128;2022-09-30T10:44:42;101102.56;;;13.34;100.00
7407;BME280;3745;56.964;24.128;2022-09-30T10:47:13;101080.59;;;13.45;100.00
7407;BME280;3745;56.964;24.128;2022-09-30T10:50:07;101105.25;;;13.60;100.00
7407;BME280;3745;56.964;24.128;2022-09-30T10:52:55;101107.94;;;13.84;100.00
7407;BME280;3745;56.964;24.128;2022-09-30T10:55:41;101080.78;;;13.79;100.00
7407;BME280;3745;56.964;24.128;2022-09-30T11:01:18;101111.44;;;14.09;100.00
7407;BME280;3745;56.964;24.128;2022-09-30T11:06:38;101116.56;;;14.18;100.00
7407;BME280;3745;56.964;24.128;2022-09-30T11:09:35;101115.75;;;14.25;100.00
7407;BME280;3745;56.964;24.128;2022-09-30T11:15:00;101120.09;;;14.47;100.00
7407;BME280;3745;56.964;24.128;2022-09-30T11:22:45;101131.91;;;14.27;100.00
7407;BME280;3745;56.964;24.128;2022-09-30T11:25:23;101131.88;;;14.21;100.00
7407;BME280;3745;56.964;24.128;2022-09-30T11:36:09;101130.03;;;13.90;100.00
7407;BME280;3745;56.964;24.128;2022-09-30T11:39:15;101137.63;;;13.81;100.00
7407;BME280;3745;56.964;24.128;2022-09-30T11:44:59;101133.31;;;13.71;100.00
7407;BME280;3745;56.964;24.128;2022-09-30T11:59:13;101120.63;;;13.74;100.00
7407;BME280;3745;56.964;24.128;2022-09-30T12:01:44;101136.75;;;13.79;100.00
7407;BME280;3745;56.964;24.128;2022-09-30T12:04:38;101135.81;;;13.63;100.00
7407;BME280;3745;56.964;24.128;2022-09-30T12:07:19;101134.97;;;13.63;100.00
7407;BME280;3745;56.964;24.128;2022-09-30T12:09:54;101121.38;;;13.61;100.00
7407;BME280;3745;56.964;24.128;2022-09-30T12:12:23;101104.31;;;13.44;100.00
7407;BME280;3745;56.964;24.128;2022-09-30T12:14:54;101152.03;;;13.82;100.00
7407;BME280;3745;56.964;24.128;2022-09-30T12:17:25;101153.78;;;13.89;100.00
7407;BME280;3745;56.964;24.128;2022-09-30T12:20:10;101153.78;;;13.89;100.00
7407;BME280;3745;56.964;24.128;2022-09-30T12:22:43;101158.81;;;13.83;100.00
7407;BME280;3745;56.964;24.128;2022-09-30T12:25:22;101090.63;;;13.24;100.00
7407;BME280;3745;56.964;24.128;2022-09-30T12:30:20;101163.75;;;13.55;100.00
7407;BME280;3745;56.964;24.128;2022-09-30T12:38:45;101158.50;;;13.34;100.00
7407;BME280;3745;56.964;24.128;2022-09-30T12:46:47;101164.56;;;13.50;100.00
7407;BME280;3745;56.964;24.128;2022-09-30T12:49:21;101141.56;;;13.39;100.00
7407;BME280;3745;56.964;24.128;2022-09-30T12:51:57;101151.06;;;13.66;100.00
7407;BME280;3745;56.964;24.128;2022-09-30T12:54:27;101158.72;;;13.65;100.00
7407;BME280;3745;56.964;24.128;2022-09-30T12:56:57;101151.94;;;13.70;100.00
7407;BME280;3745;56.964;24.128;2022-09-30T12:59:55;101154.53;;;13.74;100.00
7407;BME280;3745;56.964;24.128;2022-09-30T13:02:33;101146.06;;;13.74;100.00
7407;BME280;3745;56.964;24.128;2022-09-30T13:10:45;101136.06;;;14.05;100.00
7407;BME280;3745;56.964;24.128;2022-09-30T13:13:27;101148.75;;;14.04;100.00
7407;BME280;3745;56.964;24.128;2022-09-30T13:16:00;101079.06;;;13.69;100.00
7407;BME280;3745;56.964;24.128;2022-09-30T13:21:16;101145.41;;;14.08;100.00
7407;BME280;3745;56.964;24.128;2022-09-30T13:31:26;101111.38;;;13.94;100.00
7407;BME280;3745;56.964;24.128;2022-09-30T13:34:11;101142.03;;;14.20;100.00
7407;BME280;3745;56.964;24.128;2022-09-30T13:41:35;101106.28;;;13.94;100.00
7407;BME280;3745;56.964;24.128;2022-09-30T13:44:08;101152.28;;;14.30;100.00
7407;BME280;3745;56.964;24.128;2022-09-30T13:52:19;101146.38;;;14.40;100.00
7407;BME280;3745;56.964;24.128;2022-09-30T13:54:47;101114.88;;;14.14;100.00
7407;BME280;3745;56.964;24.128;2022-09-30T13:57:18;101159.13;;;14.40;100.00
7407;BME280;3745;56.964;24.128;2022-09-30T13:59:52;101158.28;;;14.43;100.00
7407;BME280;3745;56.964;24.128;2022-09-30T14:08:29;101165.97;;;14.50;100.00
7407;BME280;3745;56.964;24.128;2022-09-30T14:13:45;101136.97;;;14.24;100.00
